Latest Weather Observations for Canberra

IDN60901

Issued at 11:51 pm EDT Wednesday 4 March 2015 (issued every 10 minutes, with the page automatically refreshed every 10 minutes)

About weather observations | Map of Canberra area stations | Latest observations for Canberra area | Other Formats
Station Details ID: 070351 Name: CANBERRA AIRPORT Lat: -35.31 Lon: 149.20 Height: 577.05 m
Data from the previous 72 hours. | See also: Recent months at Canberra
Date/Time
EDT
Tmp

°C
App
Tmp
°C
Dew
Point
°C
Rel
Hum
%
Delta-T

°C
Wind Press
QNH
hPa
Press
MSL
hPa
Rain
since
9 am
mm
Dir
 
Spd
km/h
Gust
km/h
Spd
kts
Gust
kts
04/11:30pm 14.6 12.6 -0.3 36 6.4 CALM 0 0 0 0 1010.8 - 0.0
04/11:00pm 16.8 14.6 -1.3 29 7.8 CALM 0 0 0 0 1011.2 - 0.0
04/10:30pm 16.7 14.4 -2.4 27 8.1 CALM 0 0 0 0 1011.3 - 0.0
04/10:00pm 17.8 14.2 -1.9 26 8.5 W 7 13 4 7 1011.3 - 0.0
04/09:30pm 20.2 15.0 -2.8 21 9.9 NW 15 19 8 10 1011.3 - 0.0
04/09:00pm 19.5 14.4 -2.2 23 9.4 NW 15 22 8 12 1011.1 1009.3 0.0
04/08:30pm 22.3 17.8 -3.1 18 11.1 NW 11 13 6 7 1010.9 - 0.0
04/08:00pm 24.0 19.3 -1.8 18 11.7 W 13 19 7 10 1010.7 - 0.0
04/07:30pm 25.2 19.3 -2.4 16 12.5 W 19 26 10 14 1010.4 - 0.0
04/07:00pm 26.6 21.4 0.4 18 12.7 W 17 24 9 13 1010.4 - 0.0
04/06:30pm 27.8 21.5 -1.2 15 13.7 W 22 32 12 17 1010.2 - 0.0
04/06:00pm 28.6 23.1 2.0 18 13.4 W 20 28 11 15 1010.2 1008.3 0.0
04/05:30pm 28.9 23.1 4.4 21 12.9 NW 24 32 13 17 1010.2 - 0.0
04/05:00pm 29.4 23.3 2.6 18 13.7 W 24 32 13 17 1010.3 - 0.0
04/04:30pm 29.4 23.7 4.8 21 13.1 W 24 30 13 16 1010.4 - 0.0
04/04:00pm 29.7 24.7 4.4 20 13.4 W 20 32 11 17 1010.7 - 0.0
04/03:30pm 28.8 24.6 5.6 23 12.4 WNW 17 32 9 17 1010.9 - 0.0
04/03:00pm 27.5 23.0 6.3 26 11.4 NW 19 28 10 15 1011.6 1009.8 0.0
04/02:30pm 27.9 24.6 9.7 32 10.4 W 17 26 9 14 1012.1 - 0.0
04/02:00pm 27.0 23.5 8.9 32 10.2 WNW 17 26 9 14 1012.5 - 0.0
04/01:30pm 27.6 24.8 8.5 30 10.7 NW 13 20 7 11 1012.7 - 0.0
04/01:00pm 26.6 25.0 11.5 39 8.8 WNW 11 26 6 14 1013.1 - 0.0
04/12:30pm 25.4 23.5 11.9 43 7.9 WNW 13 17 7 9 1013.8 - 0.0
04/12:00pm 24.3 23.7 12.3 47 7.0 W 7 15 4 8 1014.4 1012.6 0.0
04/11:00am 22.9 23.2 15.0 61 4.8 NNW 7 15 4 8 1015.3 - 0.0
04/10:30am 21.1 20.6 13.8 63 4.3 NNW 9 13 5 7 1015.7 - 0.0
04/10:00am 20.8 21.4 14.2 66 3.9 ENE 4 11 2 6 1015.7 - 0.0
04/09:00am 18.0 17.4 13.5 75 2.6 ENE 9 11 5 6 1015.8 1014.0 0.0
04/08:00am 17.3 16.9 14.2 82 1.8 E 9 11 5 6 1015.4 - 0.0
04/07:30am 16.7 16.6 14.0 84 1.6 ENE 7 9 4 5 1015.0 - 0.0
04/07:00am 16.7 16.6 13.8 83 1.7 NE 7 7 4 4 1014.9 - 0.0
04/06:30am 16.7 17.1 13.8 83 1.7 E 4 6 2 3 1014.6 - 0.0
04/05:30am 16.6 17.8 13.9 84 1.6 CALM 0 0 0 0 1014.6 - 0.0
04/05:00am 16.5 17.8 14.2 86 1.3 CALM 0 0 0 0 1014.6 - 0.0
04/04:31am 16.3 16.2 13.8 85 1.5 N 7 7 4 4 1014.8 - 0.0
04/04:30am 16.3 16.2 13.8 85 1.5 N 7 7 4 4 1014.8 - 0.0
04/04:00am 16.5 16.7 14.2 86 1.3 NNE 6 7 3 4 1014.9 - 0.0
04/03:30am 16.0 16.0 14.2 89 1.1 NNW 7 7 4 4 1015.3 - 0.0
04/03:00am 16.1 16.5 13.8 86 1.3 N 4 7 2 4 1015.6 1013.8 0.0
04/02:30am 16.7 18.0 14.2 85 1.5 CALM 0 0 0 0 1015.8 - 0.0
04/02:00am 16.0 17.3 14.2 89 1.1 CALM 0 0 0 0 1016.0 - 0.0
04/01:30am 15.2 16.3 13.6 90 0.9 CALM 0 0 0 0 1016.4 - 0.0
04/01:02am 14.4 13.5 12.6 89 1.0 E 9 9 5 5 1016.3 - 0.0
04/01:00am 14.4 13.5 12.6 89 1.0 E 9 9 5 5 1016.3 - 0.0
04/12:30am 15.0 14.5 12.7 86 1.3 ESE 7 9 4 5 1016.5 - 0.0
04/12:00am 15.1 14.3 12.8 86 1.3 SE 9 13 5 7 1016.4 1014.6 0.0
 
Date/Time
EDT
Tmp

°C
App
Tmp
°C
Dew
Point
°C
Rel
Hum
%
Delta-T

°C
Wind Press
QNH
hPa
Press
MSL
hPa
Rain
since
9 am
mm
Dir
 
Spd
km/h
Gust
km/h
Spd
kts
Gust
kts
03/11:30pm 15.7 14.2 13.2 85 1.4 ESE 13 15 7 8 1016.4 - 0.0
03/11:00pm 16.1 15.1 13.4 84 1.6 SE 11 15 6 8 1016.5 - 0.0
03/10:30pm 16.1 15.6 12.7 80 1.9 SE 7 11 4 6 1016.5 - 0.0
03/10:00pm 17.3 17.0 13.4 78 2.3 E 7 11 4 6 1016.3 - 0.0
03/09:30pm 18.0 17.0 13.5 75 2.6 E 11 15 6 8 1016.1 - 0.0
03/09:00pm 18.6 18.1 13.7 73 2.9 E 9 13 5 7 1015.9 1014.1 0.0
03/08:30pm 19.5 19.2 14.3 72 3.1 NE 9 17 5 9 1015.2 - 0.0
03/08:00pm 20.7 20.5 14.6 68 3.7 E 9 15 5 8 1014.5 - 0.0
03/07:30pm 22.6 20.3 14.7 61 4.8 NE 20 28 11 15 1013.9 - 0.0
03/07:00pm 26.6 24.5 12.3 41 8.5 NNW 15 19 8 10 1013.5 - 0.0
03/06:30pm 27.4 26.1 13.7 43 8.3 NW 13 17 7 9 1013.7 - 0.0
03/06:00pm 27.2 25.7 12.0 38 9.0 WNW 11 17 6 9 1013.7 1011.9 0.0
03/05:30pm 27.2 25.7 13.2 42 8.4 NW 13 22 7 12 1013.4 - 0.0
03/05:00pm 27.3 25.7 14.0 44 8.1 NNW 15 20 8 11 1013.3 - 0.0
03/04:30pm 27.1 26.7 14.1 44 7.9 W 9 17 5 9 1013.5 - 0.0
03/04:00pm 26.7 26.1 13.4 43 8.0 SW 9 17 5 9 1014.0 - 0.0
03/03:30pm 27.0 27.1 14.4 46 7.7 W 7 13 4 7 1014.2 - 0.0
03/03:00pm 27.1 26.5 14.5 46 7.7 W 11 19 6 10 1014.6 1012.8 0.0
03/02:30pm 26.8 26.1 14.2 46 7.7 W 11 17 6 9 1015.1 - 0.0
03/02:00pm 25.7 24.7 14.5 50 6.8 WNW 13 19 7 10 1015.3 - 0.0
03/01:30pm 25.1 24.6 13.9 49 6.8 WNW 9 17 5 9 1015.4 - 0.0
03/01:00pm 24.4 24.3 13.9 52 6.3 N 7 11 4 6 1016.0 - 0.0
03/12:30pm 23.0 22.8 13.5 55 5.7 NE 7 11 4 6 1016.5 - 0.0
03/12:00pm 22.1 21.8 13.2 57 5.2 SW 7 9 4 5 1017.1 1015.4 0.0
03/11:30am 21.7 21.6 13.3 59 5.0 W 6 9 3 5 1017.2 - 0.0
03/11:00am 21.2 20.6 13.4 61 4.6 NW 9 13 5 7 1017.6 - 0.0
03/10:30am 20.9 21.1 13.1 61 4.6 WNW 4 9 2 5 1017.6 - 0.0
03/10:00am 20.2 20.7 12.9 63 4.2 WNW 2 7 1 4 1017.5 - 0.0
03/09:30am 19.3 20.1 12.6 65 3.9 CALM 0 7 0 4 1017.5 - 0.0
03/09:00am 17.9 17.5 12.4 70 3.1 S 6 7 3 4 1017.2 1015.5 0.0
03/08:30am 16.9 17.4 12.8 77 2.3 E 2 7 1 4 1017.1 - 0.0
03/08:00am 15.2 16.2 13.1 87 1.2 CALM 0 0 0 0 1017.0 - 0.0
03/07:30am 13.7 14.1 12.4 92 0.7 E 2 6 1 3 1016.7 - 0.0
03/07:00am 13.4 12.3 12.0 91 0.8 N 9 11 5 6 1016.2 - 0.0
03/06:30am 13.7 14.4 12.1 90 0.9 CALM 0 0 0 0 1015.9 - 0.0
03/06:00am 13.4 13.9 11.6 89 1.0 CALM 0 0 0 0 1015.9 1014.1 0.0
03/05:30am 14.0 13.3 12.0 88 1.1 ESE 7 7 4 4 1015.9 - 0.0
03/05:00am 14.1 13.2 12.7 91 0.8 ESE 9 11 5 6 1015.9 - 0.0
03/04:30am 13.6 12.5 12.0 90 0.9 SE 9 9 5 5 1016.0 - 0.0
03/04:00am 13.7 13.0 12.1 90 0.9 SE 7 9 4 5 1016.0 - -
03/03:30am 13.9 13.3 12.3 90 0.9 SE 7 7 4 4 1016.3 - -
03/03:00am 13.9 13.2 11.9 88 1.1 S 7 9 4 5 1016.4 1014.6 -
03/02:30am 14.2 13.6 12.4 89 1.0 SE 7 9 4 5 1016.5 - -
03/02:00am 14.5 13.9 12.4 87 1.2 ESE 7 9 4 5 1017.0 - -
03/01:30am 14.9 14.3 12.2 84 1.5 S 7 7 4 4 1017.7 - -
03/01:00am 15.2 14.7 12.5 84 1.5 E 7 9 4 5 1017.8 - -
03/12:30am 15.1 14.6 12.2 83 1.6 SE 6 9 3 5 1018.1 - -
03/12:00am 15.7 14.4 12.5 81 1.8 ESE 11 15 6 8 1018.2 1016.5 -
 
Date/Time
EDT
Tmp

°C
App
Tmp
°C
Dew
Point
°C
Rel
Hum
%
Delta-T

°C
Wind Press
QNH
hPa
Press
MSL
hPa
Rain
since
9 am
mm
Dir
 
Spd
km/h
Gust
km/h
Spd
kts
Gust
kts
02/11:30pm 15.9 15.5 12.5 80 1.9 E 6 9 3 5 1018.6 - -
02/11:00pm 16.2 15.3 12.6 79 2.0 E 9 17 5 9 1018.4 - -
02/10:30pm 16.4 16.1 12.6 78 2.2 ESE 6 9 3 5 1018.5 - -
02/10:00pm 16.7 16.2 12.5 76 2.4 E 7 11 4 6 1018.4 - -
02/09:30pm 17.0 15.7 12.5 75 2.6 ENE 11 15 6 8 1018.1 - -
02/09:00pm 17.7 16.0 12.4 71 3.0 ENE 13 19 7 10 1017.5 1015.7 -
02/08:30pm 18.2 15.3 12.2 68 3.4 ENE 19 30 10 16 1016.7 - -
02/08:00pm 19.0 16.0 11.8 63 4.1 ENE 19 26 10 14 1016.3 - -
02/07:30pm 19.8 15.8 11.8 60 4.6 ENE 24 32 13 17 1016.2 - -
02/07:00pm 20.7 15.8 11.3 55 5.3 ENE 28 37 15 20 1016.2 - -
02/06:30pm 22.1 16.8 11.2 50 6.2 ENE 30 37 16 20 1016.0 - -
02/06:00pm 23.1 18.2 11.2 47 6.8 E 28 35 15 19 1015.7 1013.9 -
02/05:30pm 23.8 18.9 11.2 45 7.2 E 28 35 15 19 1015.6 - -
02/05:00pm 24.1 19.8 9.3 39 8.2 NE 22 28 12 15 1015.4 - -
02/04:30pm 25.7 22.8 9.5 36 9.1 NNE 15 22 8 12 1015.8 - -
02/04:00pm 25.1 22.7 8.6 35 9.1 NNE 11 22 6 12 1016.1 - -
02/03:30pm 25.4 23.7 9.7 37 8.9 N 9 17 5 9 1016.3 - -
02/03:00pm 24.9 22.7 8.0 34 9.2 NW 9 17 5 9 1016.7 1015.0 0.0
02/02:30pm 24.4 21.7 7.5 34 9.1 NNW 11 19 6 10 1017.0 - -
02/02:00pm 24.1 22.2 8.9 38 8.4 WNW 9 15 5 8 1017.5 - -
02/01:30pm 23.0 20.2 8.7 40 7.8 N 13 22 7 12 1018.0 - -
02/01:00pm 22.4 20.3 8.1 40 7.7 N 9 15 5 8 1018.5 - -
02/12:30pm 20.9 18.8 8.2 44 6.8 N 9 11 5 6 1019.0 - -
02/12:00pm 21.0 18.3 8.9 46 6.6 N 13 22 7 12 1019.5 1017.7 0.0
02/11:30am 20.3 17.9 8.6 47 6.3 E 11 22 6 12 1019.8 - 0.0
02/11:00am 18.9 16.5 8.8 52 5.4 E 11 20 6 11 1020.2 - 0.0
02/10:52am 18.8 16.8 8.7 52 5.4 ESE 9 13 5 7 1020.4 - -
02/10:46am 14.5 - 8.9 69 2.9 - - - - - 1017.6 - -
02/10:30am 18.0 15.5 8.0 52 5.3 ESE 11 - 6 - 1020.0 - 0.0
02/10:00am 16.0 13.2 7.0 55 4.6 E 11 - 6 - 1020.0 - 0.0
02/09:30am 15.0 12.0 6.0 55 4.5 ESE 11 - 6 - 1020.0 - 0.0
02/09:00am 13.0 10.0 6.0 62 3.4 SE 11 - 6 - 1020.0 - -
02/08:30am 12.0 10.0 7.0 71 2.5 ESE 7 - 4 - 1020.0 - -
02/08:00am 10.0 7.6 7.0 81 1.5 SE 9 - 5 - 1020.0 - -
02/07:30am 9.0 5.5 7.0 87 1.0 SE 15 - 8 - 1020.0 - -
02/07:00am 8.0 5.0 6.0 87 0.9 SE 11 - 6 - 1020.0 - -
02/06:30am 8.0 5.4 6.0 87 0.9 ESE 9 - 5 - 1020.0 - -
02/06:00am 7.0 3.6 6.0 93 0.5 SE 13 - 7 - 1019.0 - -
02/05:30am 8.0 5.0 6.0 87 0.9 ESE 11 - 6 - 1019.0 - -
02/05:00am 9.0 5.6 6.0 81 1.4 ESE 13 - 7 - 1019.0 - 0.0
02/04:30am 9.0 5.8 7.0 87 1.0 ESE 13 - 7 - 1019.0 - -
02/04:00am - - - - - - - - - - - - -
02/03:30am - - - - - - - - - - - - -
02/03:00am - - - - - - - - - - - - -
02/02:30am - - - - - - - - - - - - -
02/02:00am - - - - - - - - - - - - -
02/01:30am - - - - - - - - - - - - -
02/01:00am - - - - - - - - - - - - -
02/12:30am - - - - - - - - - - - - -
02/12:00am - - - - - - - - - - - - -

Latest Capital City Observations: Canberra | Sydney | Melbourne | Brisbane | Adelaide | Perth | Hobart | Darwin

Other Formats:

Comma delimited format used in spreadsheet applications
http://www.bom.gov.au/fwo/IDN60903/IDN60903.94926.axf

JavaScript Object Notation format (JSON) in row-major order
http://www.bom.gov.au/fwo/IDN60903/IDN60903.94926.json